sensor_id;sensor_type;location;lat;lon;timestamp;noise_LAeq;noise_LA_min;noise_LA_max;noise_LA01;noise_LA95
71034;Laerm;58847;52.378;4.740;2022-10-04T00:00:08;39.13;36.86;42.60;;
71034;Laerm;58847;52.378;4.740;2022-10-04T00:00:29;38.66;35.47;43.91;;
71034;Laerm;58847;52.378;4.740;2022-10-04T00:00:48;38.07;34.78;43.05;;
71034;Laerm;58847;52.378;4.740;2022-10-04T00:01:20;38.28;35.19;45.44;;
71034;Laerm;58847;52.378;4.740;2022-10-04T00:01:31;37.96;34.46;43.54;;
71034;Laerm;58847;52.378;4.740;2022-10-04T00:01:50;38.00;35.05;42.50;;
71034;Laerm;58847;52.378;4.740;2022-10-04T00:02:22;38.78;35.23;42.44;;
71034;Laerm;58847;52.378;4.740;2022-10-04T00:02:33;39.07;36.15;42.67;;
71034;Laerm;58847;52.378;4.740;2022-10-04T00:02:44;38.86;35.81;42.84;;
71034;Laerm;58847;52.378;4.740;2022-10-04T00:03:00;38.86;36.18;42.48;;
71034;Laerm;58847;52.378;4.740;2022-10-04T00:03:22;39.02;35.90;42.30;;
71034;Laerm;58847;52.378;4.740;2022-10-04T00:03:36;39.05;35.64;45.10;;
71034;Laerm;58847;52.378;4.740;2022-10-04T00:03:51;38.67;35.53;44.01;;
71034;Laerm;58847;52.378;4.740;2022-10-04T00:04:41;38.17;34.82;47.26;;
71034;Laerm;58847;52.378;4.740;2022-10-04T00:04:55;37.99;34.88;43.67;;
71034;Laerm;58847;52.378;4.740;2022-10-04T00:05:11;37.71;33.98;44.58;;
71034;Laerm;58847;52.378;4.740;2022-10-04T00:05:24;38.47;35.04;42.88;;
71034;Laerm;58847;52.378;4.740;2022-10-04T00:05:35;38.60;35.53;42.91;;
71034;Laerm;58847;52.378;4.740;2022-10-04T00:05:50;38.82;35.16;43.68;;
71034;Laerm;58847;52.378;4.740;2022-10-04T00:06:01;38.41;35.79;44.72;;
71034;Laerm;58847;52.378;4.740;2022-10-04T00:06:18;38.50;35.43;43.55;;
71034;Laerm;58847;52.378;4.740;2022-10-04T00:06:29;38.61;34.34;42.96;;
71034;Laerm;58847;52.378;4.740;2022-10-04T00:06:43;39.81;35.76;50.12;;
71034;Laerm;58847;52.378;4.740;2022-10-04T00:06:57;38.28;34.75;42.18;;
71034;Laerm;58847;52.378;4.740;2022-10-04T00:07:23;37.47;34.09;43.64;;
71034;Laerm;58847;52.378;4.740;2022-10-04T00:07:48;37.84;34.60;41.62;;
71034;Laerm;58847;52.378;4.740;2022-10-04T00:08:17;37.98;34.76;43.23;;
71034;Laerm;58847;52.378;4.740;2022-10-04T00:08:48;37.91;34.20;42.20;;
71034;Laerm;58847;52.378;4.740;2022-10-04T00:09:03;37.76;34.09;43.70;;
71034;Laerm;58847;52.378;4.740;2022-10-04T00:09:15;38.86;34.95;44.15;;
71034;Laerm;58847;52.378;4.740;2022-10-04T00:09:35;38.21;33.80;45.32;;
71034;Laerm;58847;52.378;4.740;2022-10-04T00:09:53;37.52;34.08;42.07;;
71034;Laerm;58847;52.378;4.740;2022-10-04T00:10:22;37.38;34.18;42.50;;
71034;Laerm;58847;52.378;4.740;2022-10-04T00:10:32;37.57;33.73;42.77;;
71034;Laerm;58847;52.378;4.740;2022-10-04T00:10:43;37.82;34.55;42.52;;
71034;Laerm;58847;52.378;4.740;2022-10-04T00:11:00;38.21;34.07;43.43;;
71034;Laerm;58847;52.378;4.740;2022-10-04T00:11:16;38.44;35.00;44.83;;
71034;Laerm;58847;52.378;4.740;2022-10-04T00:11:32;38.61;35.03;43.31;;
71034;Laerm;58847;52.378;4.740;2022-10-04T00:11:44;38.02;34.42;42.75;;
71034;Laerm;58847;52.378;4.740;2022-10-04T00:11:56;38.43;35.19;43.54;;
71034;Laerm;58847;52.378;4.740;2022-10-04T00:12:13;38.17;34.91;43.24;;
71034;Laerm;58847;52.378;4.740;2022-10-04T00:12:27;39.25;34.38;45.83;;
71034;Laerm;58847;52.378;4.740;2022-10-04T00:12:44;39.00;35.62;43.13;;
71034;Laerm;58847;52.378;4.740;2022-10-04T00:12:57;38.24;35.28;43.73;;
71034;Laerm;58847;52.378;4.740;2022-10-04T00:13:13;37.72;34.97;44.45;;
71034;Laerm;58847;52.378;4.740;2022-10-04T00:13:26;38.00;34.96;43.47;;
71034;Laerm;58847;52.378;4.740;2022-10-04T00:13:37;41.72;36.22;46.95;;
71034;Laerm;58847;52.378;4.740;2022-10-04T00:13:49;39.57;35.61;44.15;;
71034;Laerm;58847;52.378;4.740;2022-10-04T00:14:06;38.41;35.91;41.60;;
71034;Laerm;58847;52.378;4.740;2022-10-04T00:14:18;39.13;35.99;42.75;;
71034;Laerm;58847;52.378;4.740;2022-10-04T00:14:32;39.06;35.81;42.94;;
71034;Laerm;58847;52.378;4.740;2022-10-04T00:14:44;38.99;35.58;46.91;;
71034;Laerm;58847;52.378;4.740;2022-10-04T00:14:56;39.35;35.99;44.63;;
71034;Laerm;58847;52.378;4.740;2022-10-04T00:15:36;43.14;35.67;54.89;;
71034;Laerm;58847;52.378;4.740;2022-10-04T00:15:48;38.74;36.43;42.87;;
71034;Laerm;58847;52.378;4.740;2022-10-04T00:15:59;38.86;36.18;43.34;;
71034;Laerm;58847;52.378;4.740;2022-10-04T00:16:11;38.85;36.08;43.86;;
71034;Laerm;58847;52.378;4.740;2022-10-04T00:16:32;38.43;35.29;42.28;;
71034;Laerm;58847;52.378;4.740;2022-10-04T00:16:43;38.54;34.51;45.00;;
71034;Laerm;58847;52.378;4.740;2022-10-04T00:16:54;39.18;35.38;44.79;;
71034;Laerm;58847;52.378;4.740;2022-10-04T00:17:09;38.69;35.93;43.42;;
71034;Laerm;58847;52.378;4.740;2022-10-04T00:17:22;38.72;35.14;44.19;;
71034;Laerm;58847;52.378;4.740;2022-10-04T00:17:34;38.32;35.42;43.18;;
71034;Laerm;58847;52.378;4.740;2022-10-04T00:17:45;38.50;35.42;42.90;;
71034;Laerm;58847;52.378;4.740;2022-10-04T00:18:22;38.32;35.50;42.66;;
71034;Laerm;58847;52.378;4.740;2022-10-04T00:18:39;38.37;35.61;42.76;;
71034;Laerm;58847;52.378;4.740;2022-10-04T00:18:59;39.20;35.32;44.41;;
71034;Laerm;58847;52.378;4.740;2022-10-04T00:19:39;38.07;34.34;43.36;;
71034;Laerm;58847;52.378;4.740;2022-10-04T00:19:51;38.70;35.17;42.86;;
71034;Laerm;58847;52.378;4.740;2022-10-04T00:20:03;38.16;35.50;43.17;;
71034;Laerm;58847;52.378;4.740;2022-10-04T00:21:00;38.40;34.99;46.55;;
71034;Laerm;58847;52.378;4.740;2022-10-04T00:21:11;38.79;35.92;42.12;;
71034;Laerm;58847;52.378;4.740;2022-10-04T00:21:21;38.69;35.89;45.69;;
71034;Laerm;58847;52.378;4.740;2022-10-04T00:22:17;38.03;34.87;41.93;;
71034;Laerm;58847;52.378;4.740;2022-10-04T00:22:30;38.28;35.59;43.48;;
71034;Laerm;58847;52.378;4.740;2022-10-04T00:22:42;38.34;35.06;45.83;;
71034;Laerm;58847;52.378;4.740;2022-10-04T00:23:47;38.04;35.05;44.30;;
71034;Laerm;58847;52.378;4.740;2022-10-04T00:24:08;37.91;34.61;42.68;;
71034;Laerm;58847;52.378;4.740;2022-10-04T00:24:22;38.16;34.76;41.93;;
71034;Laerm;58847;52.378;4.740;2022-10-04T00:24:33;38.02;34.79;43.02;;
71034;Laerm;58847;52.378;4.740;2022-10-04T00:25:01;37.74;34.92;41.92;;
71034;Laerm;58847;52.378;4.740;2022-10-04T00:25:32;38.37;34.09;43.70;;
71034;Laerm;58847;52.378;4.740;2022-10-04T00:25:43;37.68;33.93;45.52;;
71034;Laerm;58847;52.378;4.740;2022-10-04T00:26:12;37.72;34.59;42.88;;
71034;Laerm;58847;52.378;4.740;2022-10-04T00:27:32;37.71;34.30;41.30;;
71034;Laerm;58847;52.378;4.740;2022-10-04T00:28:46;37.08;33.10;42.88;;
71034;Laerm;58847;52.378;4.740;2022-10-04T00:28:56;37.47;33.61;41.90;;
71034;Laerm;58847;52.378;4.740;2022-10-04T00:29:28;37.78;34.67;43.79;;
71034;Laerm;58847;52.378;4.740;2022-10-04T00:29:39;37.68;34.27;42.85;;
71034;Laerm;58847;52.378;4.740;2022-10-04T00:30:15;37.66;34.51;42.70;;
71034;Laerm;58847;52.378;4.740;2022-10-04T00:30:33;38.39;35.23;43.24;;
71034;Laerm;58847;52.378;4.740;2022-10-04T00:30:44;39.26;35.71;42.84;;
71034;Laerm;58847;52.378;4.740;2022-10-04T00:31:23;39.13;35.67;45.47;;
71034;Laerm;58847;52.378;4.740;2022-10-04T00:31:34;39.80;36.98;44.25;;
71034;Laerm;58847;52.378;4.740;2022-10-04T00:32:25;39.46;37.24;43.13;;
71034;Laerm;58847;52.378;4.740;2022-10-04T00:32:59;38.66;35.60;44.03;;
71034;Laerm;58847;52.378;4.740;2022-10-04T00:33:10;38.04;35.39;44.83;;
71034;Laerm;58847;52.378;4.740;2022-10-04T00:33:33;38.49;35.42;44.44;;
71034;Laerm;58847;52.378;4.740;2022-10-04T00:33:44;38.68;35.45;43.87;;
71034;Laerm;58847;52.378;4.740;2022-10-04T00:33:57;37.94;34.85;42.35;;
71034;Laerm;58847;52.378;4.740;2022-10-04T00:34:47;38.20;34.64;43.99;;
71034;Laerm;58847;52.378;4.740;2022-10-04T00:34:58;38.24;34.75;43.67;;
71034;Laerm;58847;52.378;4.740;2022-10-04T00:35:47;38.16;34.38;44.80;;
71034;Laerm;58847;52.378;4.740;2022-10-04T00:35:58;38.17;34.53;42.91;;
71034;Laerm;58847;52.378;4.740;2022-10-04T00:36:36;38.43;34.08;44.02;;
71034;Laerm;58847;52.378;4.740;2022-10-04T00:36:51;37.80;34.00;41.23;;
71034;Laerm;58847;52.378;4.740;2022-10-04T00:37:02;37.78;34.98;41.42;;
71034;Laerm;58847;52.378;4.740;2022-10-04T00:37:22;38.25;34.61;44.40;;
71034;Laerm;58847;52.378;4.740;2022-10-04T00:37:52;37.87;34.86;43.66;;
71034;Laerm;58847;52.378;4.740;2022-10-04T00:38:16;38.00;33.77;44.93;;
71034;Laerm;58847;52.378;4.740;2022-10-04T00:38:33;38.14;35.09;41.99;;
71034;Laerm;58847;52.378;4.740;2022-10-04T00:38:43;37.92;33.72;41.83;;
71034;Laerm;58847;52.378;4.740;2022-10-04T00:39:15;38.10;34.58;46.29;;
71034;Laerm;58847;52.378;4.740;2022-10-04T00:39:45;37.73;34.74;42.52;;
71034;Laerm;58847;52.378;4.740;2022-10-04T00:40:04;37.69;34.39;41.77;;
71034;Laerm;58847;52.378;4.740;2022-10-04T00:40:19;38.12;34.37;44.62;;
71034;Laerm;58847;52.378;4.740;2022-10-04T00:40:32;37.89;34.62;42.43;;
71034;Laerm;58847;52.378;4.740;2022-10-04T00:41:00;39.43;35.66;44.37;;
71034;Laerm;58847;52.378;4.740;2022-10-04T00:41:12;39.49;36.75;44.98;;
71034;Laerm;58847;52.378;4.740;2022-10-04T00:41:23;39.14;36.09;43.93;;
71034;Laerm;58847;52.378;4.740;2022-10-04T00:41:36;39.37;36.61;43.33;;
71034;Laerm;58847;52.378;4.740;2022-10-04T00:42:16;39.72;37.22;44.39;;
71034;Laerm;58847;52.378;4.740;2022-10-04T00:42:42;39.99;36.87;44.50;;
71034;Laerm;58847;52.378;4.740;2022-10-04T00:42:56;39.50;36.17;45.42;;
71034;Laerm;58847;52.378;4.740;2022-10-04T00:43:11;40.61;37.77;46.78;;
71034;Laerm;58847;52.378;4.740;2022-10-04T00:43:24;40.48;37.86;45.07;;
71034;Laerm;58847;52.378;4.740;2022-10-04T00:43:39;40.68;37.40;44.81;;
71034;Laerm;58847;52.378;4.740;2022-10-04T00:43:50;39.84;36.81;44.05;;
71034;Laerm;58847;52.378;4.740;2022-10-04T00:44:02;40.30;36.91;44.82;;
71034;Laerm;58847;52.378;4.740;2022-10-04T00:44:36;39.83;37.61;44.11;;
71034;Laerm;58847;52.378;4.740;2022-10-04T00:45:01;40.21;37.10;45.51;;
71034;Laerm;58847;52.378;4.740;2022-10-04T00:45:16;39.60;35.91;45.52;;
71034;Laerm;58847;52.378;4.740;2022-10-04T00:45:30;38.71;35.33;44.54;;
71034;Laerm;58847;52.378;4.740;2022-10-04T00:45:45;38.60;35.78;44.53;;
71034;Laerm;58847;52.378;4.740;2022-10-04T00:45:58;38.88;35.72;45.94;;
71034;Laerm;58847;52.378;4.740;2022-10-04T00:46:18;38.88;35.41;42.52;;
71034;Laerm;58847;52.378;4.740;2022-10-04T00:46:30;38.94;35.31;43.77;;
71034;Laerm;58847;52.378;4.740;2022-10-04T00:46:41;39.07;35.92;45.32;;
71034;Laerm;58847;52.378;4.740;2022-10-04T00:46:52;38.24;35.36;42.55;;
71034;Laerm;58847;52.378;4.740;2022-10-04T00:47:12;38.03;34.64;42.94;;
71034;Laerm;58847;52.378;4.740;2022-10-04T00:48:00;38.69;35.54;44.41;;
71034;Laerm;58847;52.378;4.740;2022-10-04T00:48:45;39.40;36.02;44.79;;
71034;Laerm;58847;52.378;4.740;2022-10-04T00:48:59;40.20;37.18;43.77;;
71034;Laerm;58847;52.378;4.740;2022-10-04T00:49:11;40.45;37.80;45.34;;
71034;Laerm;58847;52.378;4.740;2022-10-04T00:49:23;40.11;37.46;43.96;;
71034;Laerm;58847;52.378;4.740;2022-10-04T00:49:38;39.58;36.93;43.91;;
71034;Laerm;58847;52.378;4.740;2022-10-04T00:49:52;39.07;36.35;42.97;;
71034;Laerm;58847;52.378;4.740;2022-10-04T00:50:17;38.94;36.02;43.92;;
71034;Laerm;58847;52.378;4.740;2022-10-04T00:50:40;38.65;35.50;44.04;;
71034;Laerm;58847;52.378;4.740;2022-10-04T00:51:30;39.22;35.91;43.82;;
71034;Laerm;58847;52.378;4.740;2022-10-04T00:51:37;38.81;35.82;43.37;;
71034;Laerm;58847;52.378;4.740;2022-10-04T00:51:42;39.35;36.45;43.31;;
71034;Laerm;58847;52.378;4.740;2022-10-04T00:51:58;39.26;36.55;43.75;;
71034;Laerm;58847;52.378;4.740;2022-10-04T00:52:14;39.55;36.81;46.29;;
71034;Laerm;58847;52.378;4.740;2022-10-04T00:52:29;39.39;36.74;45.52;;
71034;Laerm;58847;52.378;4.740;2022-10-04T00:52:45;39.98;37.28;43.48;;
71034;Laerm;58847;52.378;4.740;2022-10-04T00:52:56;39.55;37.01;42.98;;
71034;Laerm;58847;52.378;4.740;2022-10-04T00:53:12;39.56;37.10;43.84;;
71034;Laerm;58847;52.378;4.740;2022-10-04T00:53:57;39.52;36.11;44.22;;
71034;Laerm;58847;52.378;4.740;2022-10-04T00:54:37;38.57;35.36;47.31;;
71034;Laerm;58847;52.378;4.740;2022-10-04T00:54:51;39.13;35.59;46.02;;
71034;Laerm;58847;52.378;4.740;2022-10-04T00:55:04;39.32;36.27;43.46;;
71034;Laerm;58847;52.378;4.740;2022-10-04T00:55:27;39.40;36.50;43.47;;
71034;Laerm;58847;52.378;4.740;2022-10-04T00:56:02;38.46;35.14;43.75;;
71034;Laerm;58847;52.378;4.740;2022-10-04T00:56:18;38.65;35.12;44.69;;
71034;Laerm;58847;52.378;4.740;2022-10-04T00:56:42;38.71;36.19;43.45;;
71034;Laerm;58847;52.378;4.740;2022-10-04T00:56:54;38.78;35.68;42.85;;
71034;Laerm;58847;52.378;4.740;2022-10-04T00:57:14;38.44;36.06;44.62;;
71034;Laerm;58847;52.378;4.740;2022-10-04T00:57:33;38.26;35.43;42.66;;
71034;Laerm;58847;52.378;4.740;2022-10-04T00:57:46;38.01;34.70;44.95;;
71034;Laerm;58847;52.378;4.740;2022-10-04T00:57:59;37.97;34.31;42.80;;
71034;Laerm;58847;52.378;4.740;2022-10-04T00:58:15;37.77;34.35;43.44;;
71034;Laerm;58847;52.378;4.740;2022-10-04T00:58:28;38.16;35.39;43.80;;
71034;Laerm;58847;52.378;4.740;2022-10-04T00:58:44;38.45;35.36;44.92;;
71034;Laerm;58847;52.378;4.740;2022-10-04T00:59:42;43.40;39.32;48.01;;
71034;Laerm;58847;52.378;4.740;2022-10-04T00:59:56;44.22;38.64;51.54;;
71034;Laerm;58847;52.378;4.740;2022-10-04T01:00:13;40.70;36.68;44.12;;
71034;Laerm;58847;52.378;4.740;2022-10-04T01:00:24;39.41;36.79;45.74;;
71034;Laerm;58847;52.378;4.740;2022-10-04T01:00:34;38.45;36.23;44.85;;
71034;Laerm;58847;52.378;4.740;2022-10-04T01:00:45;38.13;35.13;43.53;;
71034;Laerm;58847;52.378;4.740;2022-10-04T01:00:57;38.36;35.90;42.24;;
71034;Laerm;58847;52.378;4.740;2022-10-04T01:01:08;38.35;35.43;42.70;;
71034;Laerm;58847;52.378;4.740;2022-10-04T01:01:20;39.34;36.05;43.50;;
71034;Laerm;58847;52.378;4.740;2022-10-04T01:01:32;41.19;37.62;45.83;;
71034;Laerm;58847;52.378;4.740;2022-10-04T01:01:45;42.37;39.39;46.07;;
71034;Laerm;58847;52.378;4.740;2022-10-04T01:02:18;44.92;41.24;50.47;;
71034;Laerm;58847;52.378;4.740;2022-10-04T01:02:45;40.32;36.15;44.67;;
71034;Laerm;58847;52.378;4.740;2022-10-04T01:03:00;38.63;35.09;43.72;;
71034;Laerm;58847;52.378;4.740;2022-10-04T01:03:15;38.02;34.65;43.38;;
71034;Laerm;58847;52.378;4.740;2022-10-04T01:03:37;37.74;34.45;42.35;;
71034;Laerm;58847;52.378;4.740;2022-10-04T01:03:48;38.33;35.15;45.02;;
71034;Laerm;58847;52.378;4.740;2022-10-04T01:04:01;38.23;34.83;43.92;;
71034;Laerm;58847;52.378;4.740;2022-10-04T01:04:23;38.42;35.54;42.13;;
71034;Laerm;58847;52.378;4.740;2022-10-04T01:04:45;38.43;35.39;45.20;;
71034;Laerm;58847;52.378;4.740;2022-10-04T01:05:08;37.99;34.37;44.96;;
71034;Laerm;58847;52.378;4.740;2022-10-04T01:05:28;37.90;34.64;44.40;;
71034;Laerm;58847;52.378;4.740;2022-10-04T01:05:46;38.02;35.09;43.45;;
71034;Laerm;58847;52.378;4.740;2022-10-04T01:06:00;38.66;35.34;42.37;;
71034;Laerm;58847;52.378;4.740;2022-10-04T01:06:12;38.31;35.44;41.91;;
71034;Laerm;58847;52.378;4.740;2022-10-04T01:06:24;38.07;35.16;42.03;;
71034;Laerm;58847;52.378;4.740;2022-10-04T01:06:35;38.48;34.89;44.02;;
71034;Laerm;58847;52.378;4.740;2022-10-04T01:06:46;38.30;35.58;41.91;;
71034;Laerm;58847;52.378;4.740;2022-10-04T01:06:57;38.11;35.16;44.86;;
71034;Laerm;58847;52.378;4.740;2022-10-04T01:07:08;38.22;35.44;42.40;;
71034;Laerm;58847;52.378;4.740;2022-10-04T01:07:27;39.07;36.11;44.26;;
71034;Laerm;58847;52.378;4.740;2022-10-04T01:07:40;39.19;35.53;44.66;;
71034;Laerm;58847;52.378;4.740;2022-10-04T01:08:32;38.10;34.80;43.15;;
71034;Laerm;58847;52.378;4.740;2022-10-04T01:08:44;37.84;34.97;42.08;;
71034;Laerm;58847;52.378;4.740;2022-10-04T01:09:00;37.90;35.20;42.56;;
71034;Laerm;58847;52.378;4.740;2022-10-04T01:09:12;38.07;33.89;47.28;;
71034;Laerm;58847;52.378;4.740;2022-10-04T01:09:22;37.95;34.74;41.35;;
71034;Laerm;58847;52.378;4.740;2022-10-04T01:09:36;38.39;34.94;43.46;;
71034;Laerm;58847;52.378;4.740;2022-10-04T01:09:49;39.05;35.22;46.55;;
71034;Laerm;58847;52.378;4.740;2022-10-04T01:10:03;38.33;35.09;42.59;;
71034;Laerm;58847;52.378;4.740;2022-10-04T01:10:30;37.67;33.75;43.31;;
71034;Laerm;58847;52.378;4.740;2022-10-04T01:10:44;38.22;34.22;45.64;;
71034;Laerm;58847;52.378;4.740;2022-10-04T01:10:59;37.90;34.73;43.18;;
71034;Laerm;58847;52.378;4.740;2022-10-04T01:11:24;38.43;35.14;42.60;;
71034;Laerm;58847;52.378;4.740;2022-10-04T01:11:37;38.31;34.35;47.41;;
71034;Laerm;58847;52.378;4.740;2022-10-04T01:11:55;38.22;34.71;43.70;;
71034;Laerm;58847;52.378;4.740;2022-10-04T01:12:42;38.84;34.77;43.69;;
71034;Laerm;58847;52.378;4.740;2022-10-04T01:13:18;38.69;36.27;44.02;;
71034;Laerm;58847;52.378;4.740;2022-10-04T01:13:29;38.61;35.16;44.94;;
71034;Laerm;58847;52.378;4.740;2022-10-04T01:13:55;38.22;35.03;43.84;;
71034;Laerm;58847;52.378;4.740;2022-10-04T01:14:08;38.51;34.70;44.26;;
71034;Laerm;58847;52.378;4.740;2022-10-04T01:14:25;38.69;35.87;43.02;;
71034;Laerm;58847;52.378;4.740;2022-10-04T01:14:44;39.22;35.42;43.48;;
71034;Laerm;58847;52.378;4.740;2022-10-04T01:15:06;37.86;34.57;43.61;;
71034;Laerm;58847;52.378;4.740;2022-10-04T01:15:34;38.05;34.77;43.08;;
71034;Laerm;58847;52.378;4.740;2022-10-04T01:16:17;38.59;35.02;43.55;;
71034;Laerm;58847;52.378;4.740;2022-10-04T01:16:28;37.58;34.64;43.14;;
71034;Laerm;58847;52.378;4.740;2022-10-04T01:16:38;37.86;34.26;42.25;;
71034;Laerm;58847;52.378;4.740;2022-10-04T01:16:51;38.32;36.00;44.00;;
71034;Laerm;58847;52.378;4.740;2022-10-04T01:17:02;38.42;35.61;43.69;;
71034;Laerm;58847;52.378;4.740;2022-10-04T01:17:12;39.71;36.41;43.97;;
71034;Laerm;58847;52.378;4.740;2022-10-04T01:17:22;42.64;38.74;46.02;;
71034;Laerm;58847;52.378;4.740;2022-10-04T01:17:33;39.90;36.66;44.72;;
71034;Laerm;58847;52.378;4.740;2022-10-04T01:18:05;38.86;35.87;44.63;;
71034;Laerm;58847;52.378;4.740;2022-10-04T01:18:14;38.31;35.11;42.57;;
71034;Laerm;58847;52.378;4.740;2022-10-04T01:18:26;38.68;35.34;45.53;;
71034;Laerm;58847;52.378;4.740;2022-10-04T01:18:38;38.30;35.37;43.04;;
71034;Laerm;58847;52.378;4.740;2022-10-04T01:18:48;38.66;35.74;43.44;;
71034;Laerm;58847;52.378;4.740;2022-10-04T01:19:28;38.69;35.61;44.61;;
71034;Laerm;58847;52.378;4.740;2022-10-04T01:19:47;38.45;35.76;43.99;;
71034;Laerm;58847;52.378;4.740;2022-10-04T01:19:58;38.65;35.34;42.73;;
71034;Laerm;58847;52.378;4.740;2022-10-04T01:20:28;38.57;35.42;44.14;;
71034;Laerm;58847;52.378;4.740;2022-10-04T01:21:30;38.57;35.63;41.99;;
71034;Laerm;58847;52.378;4.740;2022-10-04T01:21:41;37.62;33.73;43.01;;
71034;Laerm;58847;52.378;4.740;2022-10-04T01:22:14;38.08;34.85;42.33;;
71034;Laerm;58847;52.378;4.740;2022-10-04T01:22:44;38.08;34.83;43.00;;
71034;Laerm;58847;52.378;4.740;2022-10-04T01:22:59;38.38;35.40;46.89;;
71034;Laerm;58847;52.378;4.740;2022-10-04T01:23:09;38.64;35.19;43.60;;
71034;Laerm;58847;52.378;4.740;2022-10-04T01:23:53;37.92;34.03;43.31;;
71034;Laerm;58847;52.378;4.740;2022-10-04T01:24:24;37.88;34.61;42.76;;
71034;Laerm;58847;52.378;4.740;2022-10-04T01:24:35;37.87;34.80;43.75;;
71034;Laerm;58847;52.378;4.740;2022-10-04T01:24:45;38.34;35.38;44.78;;
71034;Laerm;58847;52.378;4.740;2022-10-04T01:24:56;38.12;35.31;42.02;;
71034;Laerm;58847;52.378;4.740;2022-10-04T01:25:06;38.15;35.19;41.44;;
71034;Laerm;58847;52.378;4.740;2022-10-04T01:25:47;38.87;34.46;46.05;;
71034;Laerm;58847;52.378;4.740;2022-10-04T01:25:58;38.96;36.77;42.21;;
71034;Laerm;58847;52.378;4.740;2022-10-04T01:26:44;39.24;36.22;44.05;;
71034;Laerm;58847;52.378;4.740;2022-10-04T01:26:54;38.98;35.56;43.00;;
71034;Laerm;58847;52.378;4.740;2022-10-04T01:27:29;38.66;35.56;45.75;;
71034;Laerm;58847;52.378;4.740;2022-10-04T01:27:45;37.98;34.30;42.10;;
71034;Laerm;58847;52.378;4.740;2022-10-04T01:27:55;38.35;35.37;44.79;;
71034;Laerm;58847;52.378;4.740;2022-10-04T01:28:05;38.58;35.19;42.21;;
71034;Laerm;58847;52.378;4.740;2022-10-04T01:28:16;38.58;35.23;42.60;;
71034;Laerm;58847;52.378;4.740;2022-10-04T01:28:26;38.77;35.47;43.34;;
71034;Laerm;58847;52.378;4.740;2022-10-04T01:28:36;38.50;35.42;42.17;;
71034;Laerm;58847;52.378;4.740;2022-10-04T01:28:47;38.20;35.80;44.58;;
71034;Laerm;58847;52.378;4.740;2022-10-04T01:29:01;38.02;34.72;42.20;;
71034;Laerm;58847;52.378;4.740;2022-10-04T01:29:15;39.00;35.99;44.34;;
71034;Laerm;58847;52.378;4.740;2022-10-04T01:29:27;38.57;35.33;42.41;;
71034;Laerm;58847;52.378;4.740;2022-10-04T01:29:38;38.68;36.01;44.49;;
71034;Laerm;58847;52.378;4.740;2022-10-04T01:29:48;39.07;35.96;41.88;;
71034;Laerm;58847;52.378;4.740;2022-10-04T01:29:59;38.64;35.30;43.98;;
71034;Laerm;58847;52.378;4.740;2022-10-04T01:30:14;39.66;36.34;42.84;;
71034;Laerm;58847;52.378;4.740;2022-10-04T01:30:25;39.10;36.20;42.16;;
71034;Laerm;58847;52.378;4.740;2022-10-04T01:30:35;38.95;36.22;43.91;;
71034;Laerm;58847;52.378;4.740;2022-10-04T01:30:46;38.38;35.21;42.11;;
71034;Laerm;58847;52.378;4.740;2022-10-04T01:30:56;38.19;34.92;41.82;;
71034;Laerm;58847;52.378;4.740;2022-10-04T01:31:06;38.13;34.76;42.90;;
71034;Laerm;58847;52.378;4.740;2022-10-04T01:31:17;38.08;34.78;43.90;;
71034;Laerm;58847;52.378;4.740;2022-10-04T01:31:28;37.63;34.33;41.63;;
71034;Laerm;58847;52.378;4.740;2022-10-04T01:31:40;37.85;34.93;45.39;;
71034;Laerm;58847;52.378;4.740;2022-10-04T01:31:51;37.83;35.35;41.72;;
71034;Laerm;58847;52.378;4.740;2022-10-04T01:32:03;38.04;35.29;42.20;;
71034;Laerm;58847;52.378;4.740;2022-10-04T01:32:13;37.95;34.97;43.14;;
71034;Laerm;58847;52.378;4.740;2022-10-04T01:32:23;37.79;34.25;43.18;;
71034;Laerm;58847;52.378;4.740;2022-10-04T01:32:36;38.00;34.73;44.09;;
71034;Laerm;58847;52.378;4.740;2022-10-04T01:32:46;38.36;35.30;43.23;;
71034;Laerm;58847;52.378;4.740;2022-10-04T01:32:56;38.76;35.74;42.71;;
71034;Laerm;58847;52.378;4.740;2022-10-04T01:33:07;38.59;35.66;46.31;;
71034;Laerm;58847;52.378;4.740;2022-10-04T01:33:17;38.81;35.35;43.57;;
71034;Laerm;58847;52.378;4.740;2022-10-04T01:33:28;38.49;35.81;43.02;;
71034;Laerm;58847;52.378;4.740;2022-10-04T01:33:38;38.96;35.80;43.15;;
71034;Laerm;58847;52.378;4.740;2022-10-04T01:33:50;39.30;36.10;46.18;;
71034;Laerm;58847;52.378;4.740;2022-10-04T01:34:00;39.48;36.93;42.86;;
71034;Laerm;58847;52.378;4.740;2022-10-04T01:34:15;40.08;37.13;43.55;;
71034;Laerm;58847;52.378;4.740;2022-10-04T01:34:27;39.27;36.89;43.24;;
71034;Laerm;58847;52.378;4.740;2022-10-04T01:34:38;38.58;36.42;42.57;;
71034;Laerm;58847;52.378;4.740;2022-10-04T01:34:49;38.93;35.37;44.57;;
71034;Laerm;58847;52.378;4.740;2022-10-04T01:34:59;38.12;35.27;44.62;;
71034;Laerm;58847;52.378;4.740;2022-10-04T01:35:10;38.27;35.42;41.67;;
71034;Laerm;58847;52.378;4.740;2022-10-04T01:35:21;38.50;35.13;43.92;;
71034;Laerm;58847;52.378;4.740;2022-10-04T01:35:31;38.76;35.76;42.09;;
71034;Laerm;58847;52.378;4.740;2022-10-04T01:35:45;38.68;36.15;42.63;;
71034;Laerm;58847;52.378;4.740;2022-10-04T01:35:55;38.97;36.47;43.55;;
71034;Laerm;58847;52.378;4.740;2022-10-04T01:36:06;39.42;36.62;43.92;;
71034;Laerm;58847;52.378;4.740;2022-10-04T01:36:17;39.54;36.80;43.62;;
71034;Laerm;58847;52.378;4.740;2022-10-04T01:36:27;41.03;36.61;46.18;;
71034;Laerm;58847;52.378;4.740;2022-10-04T01:36:38;41.15;38.34;43.70;;
71034;Laerm;58847;52.378;4.740;2022-10-04T01:36:49;39.48;36.82;44.57;;
71034;Laerm;58847;52.378;4.740;2022-10-04T01:37:01;39.27;36.47;44.27;;
71034;Laerm;58847;52.378;4.740;2022-10-04T01:37:11;39.56;36.18;45.91;;
71034;Laerm;58847;52.378;4.740;2022-10-04T01:37:23;40.13;37.31;44.61;;
71034;Laerm;58847;52.378;4.740;2022-10-04T01:37:33;41.40;38.19;44.50;;
71034;Laerm;58847;52.378;4.740;2022-10-04T01:37:44;40.42;36.87;44.40;;
71034;Laerm;58847;52.378;4.740;2022-10-04T01:37:54;40.24;37.56;43.65;;
71034;Laerm;58847;52.378;4.740;2022-10-04T01:38:05;40.09;36.46;45.24;;
71034;Laerm;58847;52.378;4.740;2022-10-04T01:38:16;39.86;37.34;44.33;;
71034;Laerm;58847;52.378;4.740;2022-10-04T01:38:26;39.21;36.46;43.51;;
71034;Laerm;58847;52.378;4.740;2022-10-04T01:38:36;43.28;40.23;45.14;;
71034;Laerm;58847;52.378;4.740;2022-10-04T01:38:47;42.07;40.01;45.13;;
71034;Laerm;58847;52.378;4.740;2022-10-04T01:38:58;42.13;40.30;47.56;;
71034;Laerm;58847;52.378;4.740;2022-10-04T01:39:08;42.07;40.05;45.79;;
71034;Laerm;58847;52.378;4.740;2022-10-04T01:39:20;42.03;40.16;44.72;;
71034;Laerm;58847;52.378;4.740;2022-10-04T01:39:31;42.11;39.99;44.93;;
71034;Laerm;58847;52.378;4.740;2022-10-04T01:39:41;42.18;40.37;44.23;;
71034;Laerm;58847;52.378;4.740;2022-10-04T01:39:51;42.50;40.67;45.32;;
71034;Laerm;58847;52.378;4.740;2022-10-04T01:40:02;40.96;36.95;45.53;;
71034;Laerm;58847;52.378;4.740;2022-10-04T01:40:12;41.01;38.37;44.46;;
71034;Laerm;58847;52.378;4.740;2022-10-04T01:40:23;40.58;37.06;44.65;;
71034;Laerm;58847;52.378;4.740;2022-10-04T01:40:33;40.12;36.89;44.94;;
71034;Laerm;58847;52.378;4.740;2022-10-04T01:40:45;40.22;37.55;43.58;;
71034;Laerm;58847;52.378;4.740;2022-10-04T01:40:57;40.12;36.52;44.31;;